createdAt,value
2022-11-22T00:00:27.789Z,35.40
2022-11-22T00:02:54.965Z,34.15
2022-11-22T00:05:21.808Z,45.72
2022-11-22T00:07:48.660Z,36.70
2022-11-22T00:10:16.279Z,26.20
2022-11-22T00:12:43.610Z,33.50
2022-11-22T00:15:11.713Z,31.42
2022-11-22T00:17:38.941Z,32.47
2022-11-22T00:20:08.176Z,29.20
2022-11-22T00:22:38.498Z,27.08
2022-11-22T00:25:08.617Z,27.52
2022-11-22T00:27:35.893Z,31.63
2022-11-22T00:30:02.788Z,23.40
2022-11-22T00:32:29.526Z,23.23
2022-11-22T00:34:56.720Z,24.58
2022-11-22T00:37:23.881Z,21.48
2022-11-22T00:39:50.667Z,25.73
2022-11-22T00:42:18.354Z,31.55
2022-11-22T00:44:45.109Z,28.00
2022-11-22T00:47:11.855Z,31.13
2022-11-22T00:49:39.108Z,20.38
2022-11-22T00:52:05.993Z,26.77
2022-11-22T00:54:33.217Z,24.88
2022-11-22T00:57:00.030Z,34.90
2022-11-22T00:59:27.414Z,24.50
2022-11-22T01:01:54.352Z,30.65
2022-11-22T01:04:21.225Z,21.20
2022-11-22T01:06:48.049Z,22.70
2022-11-22T01:09:22.346Z,26.75
2022-11-22T01:11:49.924Z,25.17
2022-11-22T01:14:18.428Z,21.17
2022-11-22T01:16:45.738Z,24.45
2022-11-22T01:19:12.666Z,22.63
2022-11-22T01:21:40.092Z,21.08
2022-11-22T01:24:08.232Z,28.95
2022-11-22T01:26:35.608Z,30.10
2022-11-22T01:29:02.523Z,24.67
2022-11-22T01:31:30.204Z,24.65
2022-11-22T01:33:58.893Z,27.63
2022-11-22T01:36:26.514Z,25.33
2022-11-22T01:38:53.313Z,20.45
2022-11-22T01:41:20.406Z,24.70
2022-11-22T01:43:47.145Z,19.70
2022-11-22T01:46:37.377Z,20.05
2022-11-22T01:49:40.646Z,21.50
2022-11-22T01:52:12.442Z,20.33
2022-11-22T01:54:42.045Z,24.13
2022-11-22T01:57:14.492Z,15.10
2022-11-22T01:59:48.956Z,22.92
2022-11-22T02:02:15.869Z,16.38
2022-11-22T02:04:43.782Z,20.50
2022-11-22T02:07:15.552Z,21.10
2022-11-22T02:09:43.542Z,23.27
2022-11-22T02:12:12.023Z,17.00
2022-11-22T02:14:40.651Z,17.67
2022-11-22T02:17:07.850Z,16.15
2022-11-22T02:19:37.977Z,19.63
2022-11-22T02:22:20.562Z,16.95
2022-11-22T02:24:56.860Z,17.88
2022-11-22T02:27:24.046Z,19.38
2022-11-22T02:29:50.938Z,19.40
2022-11-22T02:32:18.195Z,21.48
2022-11-22T02:34:50.384Z,16.48
2022-11-22T02:37:27.472Z,17.95
2022-11-22T02:40:01.116Z,20.38
2022-11-22T02:42:30.903Z,20.35
2022-11-22T02:44:58.129Z,21.30
2022-11-22T02:47:24.870Z,18.02
2022-11-22T02:49:53.634Z,19.88
2022-11-22T02:52:20.977Z,19.45
2022-11-22T02:54:47.820Z,17.50
2022-11-22T02:57:14.725Z,21.08
2022-11-22T02:59:41.541Z,20.15
2022-11-22T03:02:08.337Z,17.25
2022-11-22T03:04:35.493Z,18.02
2022-11-22T03:07:02.967Z,17.02
2022-11-22T03:09:30.560Z,20.48
2022-11-22T03:11:58.147Z,19.13
2022-11-22T03:14:25.001Z,14.25
2022-11-22T03:16:51.994Z,20.05
2022-11-22T03:19:19.479Z,22.08
2022-11-22T03:21:46.743Z,20.08
2022-11-22T03:24:13.907Z,16.33
2022-11-22T03:26:40.963Z,19.30
2022-11-22T03:29:08.116Z,15.90
2022-11-22T03:31:36.190Z,19.27
2022-11-22T03:34:03.357Z,14.65
2022-11-22T03:36:30.150Z,17.05
2022-11-22T03:38:56.919Z,12.85
2022-11-22T03:41:24.108Z,18.55
2022-11-22T03:43:51.244Z,18.05
2022-11-22T03:46:22.228Z,18.25
2022-11-22T03:48:49.369Z,20.65
2022-11-22T03:51:16.164Z,30.10
2022-11-22T03:53:43.009Z,26.02
2022-11-22T03:56:10.328Z,18.17
2022-11-22T03:58:37.174Z,21.13
2022-11-22T04:01:04.029Z,25.00
2022-11-22T04:03:31.461Z,28.23
2022-11-22T04:05:58.361Z,29.30
2022-11-22T04:08:25.870Z,25.83
2022-11-22T04:10:53.242Z,32.30
2022-11-22T04:13:20.629Z,32.05
2022-11-22T04:15:47.439Z,38.53
2022-11-22T04:18:14.959Z,33.83
2022-11-22T04:21:17.416Z,35.45
2022-11-22T04:23:44.216Z,44.78
2022-11-22T04:26:11.435Z,41.45
2022-11-22T04:29:08.130Z,40.58
2022-11-22T04:31:43.807Z,31.25
2022-11-22T04:34:10.633Z,32.97
2022-11-22T04:36:37.383Z,30.67
2022-11-22T04:39:04.168Z,27.92
2022-11-22T04:41:31.392Z,37.28
2022-11-22T04:44:17.285Z,28.63
2022-11-22T04:46:44.164Z,26.65
2022-11-22T04:49:11.376Z,23.42
2022-11-22T04:51:56.656Z,25.13
2022-11-22T04:54:23.611Z,23.23
2022-11-22T04:56:50.398Z,24.63
2022-11-22T04:59:17.175Z,32.47
2022-11-22T05:01:44.361Z,29.40
2022-11-22T05:04:11.231Z,31.88
2022-11-22T05:06:38.417Z,27.13
2022-11-22T05:09:05.600Z,24.23
2022-11-22T05:11:33.055Z,29.90
2022-11-22T05:14:00.340Z,29.70
2022-11-22T05:16:27.083Z,32.95
2022-11-22T05:18:59.692Z,26.40
2022-11-22T05:21:28.462Z,25.30
2022-11-22T05:23:56.505Z,30.98
2022-11-22T05:26:42.074Z,29.80
2022-11-22T05:29:10.509Z,24.55
2022-11-22T05:31:40.342Z,25.40
2022-11-22T05:34:07.148Z,26.33
2022-11-22T05:36:35.232Z,28.65
2022-11-22T05:39:03.020Z,29.05
2022-11-22T05:41:29.792Z,27.88
2022-11-22T05:43:57.819Z,25.08
2022-11-22T05:46:27.177Z,27.90
2022-11-22T05:48:56.192Z,21.30
2022-11-22T05:51:32.176Z,21.63
2022-11-22T05:54:01.211Z,21.63
2022-11-22T05:56:28.537Z,19.23
2022-11-22T05:58:55.334Z,21.33
2022-11-22T06:01:23.940Z,18.25
2022-11-22T06:03:51.313Z,15.70
2022-11-22T06:06:18.638Z,18.55
2022-11-22T06:08:48.527Z,20.83
2022-11-22T06:11:24.398Z,18.92
2022-11-22T06:13:59.784Z,22.63
2022-11-22T06:16:27.543Z,24.80
2022-11-22T06:18:55.265Z,19.75
2022-11-22T06:21:24.711Z,27.30
2022-11-22T06:23:55.479Z,37.50
2022-11-22T06:26:24.043Z,35.58
2022-11-22T06:28:51.729Z,33.03
2022-11-22T06:31:24.815Z,43.38
2022-11-22T06:33:55.692Z,37.40
2022-11-22T06:36:34.280Z,44.33
2022-11-22T06:39:03.602Z,36.97
2022-11-22T06:41:34.151Z,32.63
2022-11-22T06:44:07.906Z,30.35
2022-11-22T06:46:36.163Z,40.03
2022-11-22T06:49:03.815Z,33.28
2022-11-22T06:51:32.103Z,26.65
2022-11-22T06:53:59.760Z,36.38
2022-11-22T06:56:32.674Z,32.03
2022-11-22T06:59:03.979Z,30.85
2022-11-22T07:01:31.722Z,31.35
2022-11-22T07:03:59.505Z,44.08
2022-11-22T07:06:35.605Z,44.45
2022-11-22T07:09:04.671Z,47.20
2022-11-22T07:11:32.344Z,41.17
2022-11-22T07:14:07.078Z,40.85
2022-11-22T07:16:36.288Z,33.95
2022-11-22T07:19:03.073Z,33.67
2022-11-22T07:21:29.868Z,25.65
2022-11-22T07:23:56.725Z,26.65
2022-11-22T07:26:26.028Z,29.13
2022-11-22T07:28:53.374Z,25.98
2022-11-22T07:31:20.354Z,28.00
2022-11-22T07:33:47.738Z,36.80
2022-11-22T07:36:20.036Z,23.77
2022-11-22T07:38:48.459Z,38.08
2022-11-22T07:41:17.510Z,30.67
2022-11-22T07:43:44.411Z,30.20
2022-11-22T07:46:31.316Z,26.80
2022-11-22T07:48:59.473Z,29.50
2022-11-22T07:51:26.807Z,22.58
2022-11-22T07:53:55.645Z,26.65
2022-11-22T07:56:22.504Z,25.95
2022-11-22T07:58:49.357Z,25.20
2022-11-22T08:01:18.283Z,27.73
2022-11-22T08:03:46.125Z,24.75
2022-11-22T08:06:13.818Z,28.40
2022-11-22T08:08:40.847Z,22.25
2022-11-22T08:11:08.792Z,25.02
2022-11-22T08:13:35.847Z,24.10
2022-11-22T08:16:09.395Z,28.00
2022-11-22T08:18:37.155Z,33.08
2022-11-22T08:21:09.552Z,30.27
2022-11-22T08:23:37.077Z,31.17
2022-11-22T08:26:05.398Z,36.00
2022-11-22T08:28:32.872Z,31.13
2022-11-22T08:31:05.791Z,30.58
2022-11-22T08:33:33.033Z,34.83
2022-11-22T08:36:00.210Z,39.70
2022-11-22T08:38:27.470Z,47.65
2022-11-22T08:40:54.911Z,38.53
2022-11-22T08:43:21.859Z,40.75
2022-11-22T08:45:57.402Z,39.35
2022-11-22T08:48:28.917Z,40.65
2022-11-22T08:50:58.464Z,36.50
2022-11-22T08:53:26.279Z,38.67
2022-11-22T08:55:54.633Z,36.60
2022-11-22T08:58:22.177Z,33.97
2022-11-22T09:00:48.899Z,34.35
2022-11-22T09:03:15.841Z,33.47
2022-11-22T09:08:31.429Z,30.77
2022-11-22T09:11:04.721Z,39.10
2022-11-22T09:13:31.991Z,34.55
2022-11-22T09:16:24.207Z,40.58
2022-11-22T09:18:52.046Z,58.35
2022-11-22T09:21:19.672Z,85.25
2022-11-22T09:23:48.989Z,68.43
2022-11-22T09:26:18.635Z,61.50
2022-11-22T09:28:46.413Z,51.83
2022-11-22T09:31:19.488Z,58.15
2022-11-22T09:33:49.300Z,42.83
2022-11-22T09:36:18.533Z,46.28
2022-11-22T09:38:45.656Z,57.90
2022-11-22T09:41:43.211Z,34.45
2022-11-22T09:44:31.688Z,32.42
2022-11-22T09:47:21.946Z,27.27
2022-11-22T09:50:18.804Z,27.83
2022-11-22T09:52:57.348Z,28.05
2022-11-22T09:55:34.890Z,33.13
2022-11-22T09:58:33.504Z,29.88
2022-11-22T10:01:14.547Z,32.08
2022-11-22T10:03:51.801Z,32.95
2022-11-22T10:06:32.021Z,34.90
2022-11-22T10:09:04.810Z,28.50
2022-11-22T10:11:45.536Z,27.92
2022-11-22T10:14:31.906Z,30.80
2022-11-22T10:17:20.235Z,26.42
2022-11-22T10:20:13.790Z,34.30
2022-11-22T10:22:40.639Z,28.05
2022-11-22T10:25:40.341Z,25.02
2022-11-22T10:28:17.648Z,24.33
2022-11-22T10:31:00.442Z,28.27
2022-11-22T10:33:41.315Z,27.00
2022-11-22T10:36:29.107Z,25.50
2022-11-22T10:39:08.557Z,20.55
2022-11-22T10:42:03.738Z,24.90
2022-11-22T10:44:56.192Z,29.98
2022-11-22T10:47:38.022Z,30.98
2022-11-22T10:50:23.742Z,29.67
2022-11-22T10:53:09.307Z,32.10
2022-11-22T10:56:00.113Z,38.40
2022-11-22T10:58:33.412Z,36.13
2022-11-22T11:01:14.909Z,29.75
2022-11-22T11:03:45.810Z,37.33
2022-11-22T11:06:26.771Z,31.30
2022-11-22T11:12:22.354Z,30.85
2022-11-22T11:14:55.343Z,32.40
2022-11-22T11:17:31.422Z,29.13
2022-11-22T11:20:01.944Z,25.90
2022-11-22T11:23:06.415Z,28.55
2022-11-22T11:25:31.799Z,25.30
2022-11-22T11:28:04.066Z,34.30
2022-11-22T11:30:55.220Z,30.52
2022-11-22T11:33:29.799Z,26.77
2022-11-22T11:36:06.203Z,20.95
2022-11-22T11:38:40.623Z,21.10
2022-11-22T11:41:31.386Z,19.90
2022-11-22T11:44:00.356Z,24.35
2022-11-22T11:46:29.744Z,26.15
2022-11-22T11:49:09.855Z,23.30
2022-11-22T11:51:49.569Z,25.67
2022-11-22T11:54:35.181Z,20.50
2022-11-22T11:57:05.330Z,27.17
2022-11-22T11:59:44.216Z,22.02
2022-11-22T12:02:28.202Z,22.35
2022-11-22T12:05:23.966Z,19.77
2022-11-22T12:07:50.777Z,24.25
2022-11-22T12:10:31.985Z,23.48
2022-11-22T12:13:08.165Z,24.08
2022-11-22T12:15:56.704Z,17.73
2022-11-22T12:18:35.821Z,24.50
2022-11-22T12:21:21.143Z,21.17
2022-11-22T12:24:41.327Z,26.33
2022-11-22T12:26:59.539Z,21.40
2022-11-22T12:29:26.771Z,22.35
2022-11-22T12:32:07.191Z,22.50
2022-11-22T12:34:40.622Z,19.77
2022-11-22T12:37:17.374Z,20.05
2022-11-22T12:39:49.228Z,18.73
2022-11-22T12:42:54.660Z,18.65
2022-11-22T12:45:36.715Z,18.48
2022-11-22T12:48:21.074Z,20.17
2022-11-22T12:50:53.458Z,18.15
2022-11-22T12:53:28.340Z,19.08
2022-11-22T12:56:09.967Z,19.63
2022-11-22T12:59:10.802Z,21.08
2022-11-22T13:01:47.258Z,21.27
2022-11-22T13:04:30.372Z,27.08
2022-11-22T13:07:06.908Z,25.27
2022-11-22T13:09:38.352Z,27.13
2022-11-22T13:12:17.778Z,27.05
2022-11-22T13:14:54.060Z,25.67
2022-11-22T13:17:23.666Z,24.42
2022-11-22T13:19:50.874Z,23.60
2022-11-22T13:22:42.449Z,29.13
2022-11-22T13:25:32.007Z,30.13
2022-11-22T13:28:01.469Z,23.95
2022-11-22T13:30:30.207Z,20.58
2022-11-22T13:32:59.478Z,23.50
2022-11-22T13:35:37.169Z,29.75
2022-11-22T13:38:12.945Z,27.63
2022-11-22T13:40:44.055Z,21.33
2022-11-22T13:43:17.975Z,24.73
2022-11-22T13:45:49.219Z,18.58
2022-11-22T13:48:39.689Z,23.95
2022-11-22T13:51:09.005Z,22.48
2022-11-22T13:53:40.335Z,22.60
2022-11-22T13:56:16.405Z,22.48
2022-11-22T13:58:55.694Z,20.70
2022-11-22T14:01:52.214Z,20.95
2022-11-22T14:04:21.072Z,19.48
2022-11-22T14:06:54.094Z,22.20
2022-11-22T14:09:42.253Z,27.05
2022-11-22T14:12:24.753Z,27.83
2022-11-22T14:15:03.703Z,29.70
2022-11-22T14:17:41.539Z,30.48
2022-11-22T14:20:08.850Z,27.33
2022-11-22T14:23:37.566Z,34.38
2022-11-22T14:26:41.622Z,27.88
2022-11-22T14:29:41.161Z,24.00
2022-11-22T14:32:14.826Z,32.63
2022-11-22T14:35:03.110Z,30.73
2022-11-22T14:37:29.938Z,22.77
2022-11-22T14:40:08.667Z,29.27
2022-11-22T14:42:43.533Z,25.27
2022-11-22T14:45:10.297Z,34.45
2022-11-22T14:47:53.305Z,25.10
2022-11-22T14:50:32.705Z,26.90
2022-11-22T14:53:30.993Z,24.13
2022-11-22T14:56:05.306Z,27.92
2022-11-22T14:58:38.492Z,26.45
2022-11-22T15:01:40.250Z,27.73
2022-11-22T15:09:11.859Z,27.05
2022-11-22T15:09:12.522Z,29.92
2022-11-22T15:10:49.648Z,28.45
2022-11-22T15:13:37.529Z,30.60
2022-11-22T15:57:34.920Z,51.75
2022-11-22T16:00:02.408Z,39.95
2022-11-22T16:02:32.200Z,39.60
2022-11-22T16:06:10.537Z,38.30
2022-11-22T16:07:53.209Z,31.85
2022-11-22T16:10:37.219Z,29.42
2022-11-22T16:13:14.598Z,32.78
2022-11-22T16:15:41.455Z,27.85
2022-11-22T16:18:14.986Z,33.05
2022-11-22T16:20:58.529Z,29.00
2022-11-22T16:23:27.341Z,26.52
2022-11-22T16:26:00.163Z,25.98
2022-11-22T16:28:31.330Z,25.50
2022-11-22T16:31:01.374Z,24.20
2022-11-22T16:33:28.357Z,26.17
2022-11-22T16:35:57.948Z,26.98
2022-11-22T16:38:26.100Z,28.05
2022-11-22T16:40:56.045Z,31.60
2022-11-22T16:43:24.511Z,29.27
2022-11-22T16:45:51.661Z,28.83
2022-11-22T16:48:31.715Z,29.45
2022-11-22T16:51:20.231Z,30.77
2022-11-22T16:53:48.952Z,44.38
2022-11-22T16:56:27.902Z,59.78
2022-11-22T16:58:56.974Z,47.22
2022-11-22T17:01:26.693Z,37.95
2022-11-22T17:03:56.681Z,49.58
2022-11-22T17:06:26.303Z,43.40
2022-11-22T17:08:55.664Z,43.50
2022-11-22T17:11:32.346Z,26.98
2022-11-22T17:14:00.453Z,28.85
2022-11-22T17:16:27.791Z,27.90
2022-11-22T17:18:54.661Z,31.10
2022-11-22T17:21:26.510Z,31.17
2022-11-22T17:23:59.702Z,40.05
2022-11-22T17:26:27.438Z,39.03
2022-11-22T17:28:54.381Z,34.20
2022-11-22T17:31:23.105Z,39.75
2022-11-22T17:33:51.929Z,50.15
2022-11-22T17:36:21.035Z,39.75
2022-11-22T17:38:48.433Z,43.75
2022-11-22T17:41:15.395Z,36.40
2022-11-22T17:43:42.189Z,34.53
2022-11-22T17:46:08.988Z,39.30
2022-11-22T17:48:36.045Z,34.22
2022-11-22T17:51:11.441Z,31.60
2022-11-22T17:53:39.239Z,29.13
2022-11-22T17:56:11.104Z,37.40
2022-11-22T17:58:40.344Z,35.53
2022-11-22T18:01:14.463Z,31.77
2022-11-22T18:03:42.830Z,32.30
2022-11-22T18:06:11.456Z,28.75
2022-11-22T18:08:42.456Z,28.95
2022-11-22T18:11:12.074Z,29.08
2022-11-22T18:13:40.003Z,32.58
2022-11-22T18:16:12.148Z,28.42
2022-11-22T18:21:29.524Z,40.90
2022-11-22T18:23:58.457Z,34.67
2022-11-22T18:26:41.880Z,32.22
2022-11-22T18:31:57.230Z,29.30
2022-11-22T18:34:24.563Z,35.22
2022-11-22T18:37:07.231Z,33.80
2022-11-22T18:39:39.645Z,35.03
2022-11-22T18:42:10.371Z,35.65
2022-11-22T18:44:37.105Z,31.65
2022-11-22T18:47:04.207Z,34.78
2022-11-22T18:49:32.023Z,40.15
2022-11-22T18:51:59.770Z,39.63
2022-11-22T18:54:26.926Z,32.13
2022-11-22T18:56:54.089Z,39.10
2022-11-22T18:59:20.911Z,40.47
2022-11-22T19:01:47.671Z,41.08
2022-11-22T19:04:15.524Z,42.17
2022-11-22T19:06:43.463Z,48.60
2022-11-22T19:09:11.184Z,49.92
2022-11-22T19:11:38.884Z,51.25
2022-11-22T19:14:06.087Z,40.78
2022-11-22T19:16:32.953Z,38.70
2022-11-22T19:18:59.715Z,39.67
2022-11-22T19:21:28.335Z,54.15
2022-11-22T19:23:56.571Z,48.83
2022-11-22T19:26:25.415Z,43.25
2022-11-22T19:28:57.451Z,48.35
2022-11-22T19:31:27.847Z,43.72
2022-11-22T19:33:55.038Z,48.38
2022-11-22T19:36:29.160Z,52.42
2022-11-22T19:38:59.813Z,34.00
2022-11-22T19:41:27.193Z,69.35
2022-11-22T19:43:55.829Z,47.88
2022-11-22T19:46:23.973Z,49.92
2022-11-22T19:48:52.426Z,43.30
2022-11-22T19:51:19.963Z,33.65
2022-11-22T19:53:47.623Z,33.83
2022-11-22T19:56:17.782Z,36.78
2022-11-22T19:58:52.219Z,47.15
2022-11-22T20:01:20.518Z,54.22
2022-11-22T20:03:52.219Z,42.63
2022-11-22T20:06:19.780Z,47.97
2022-11-22T20:08:47.048Z,36.05
2022-11-22T20:11:16.005Z,37.75
2022-11-22T20:13:45.703Z,42.25
2022-11-22T20:16:16.457Z,44.63
2022-11-22T20:18:43.849Z,41.03
2022-11-22T20:21:11.128Z,41.85
2022-11-22T20:23:38.582Z,34.75
2022-11-22T20:26:09.841Z,33.83
2022-11-22T20:28:41.474Z,30.88
2022-11-22T20:31:19.323Z,29.95
2022-11-22T20:33:50.765Z,37.50
2022-11-22T20:36:26.558Z,31.92
2022-11-22T20:38:54.497Z,29.88
2022-11-22T20:41:24.246Z,31.25
2022-11-22T20:43:51.413Z,42.08
2022-11-22T20:46:21.207Z,30.85
2022-11-22T20:48:49.249Z,33.00
2022-11-22T20:51:18.974Z,31.40
2022-11-22T20:53:46.056Z,32.53
2022-11-22T20:56:14.072Z,30.85
2022-11-22T20:58:41.588Z,33.22
2022-11-22T21:01:15.154Z,30.70
2022-11-22T21:03:42.813Z,30.02
2022-11-22T21:06:11.497Z,33.90
2022-11-22T21:08:38.698Z,37.13
2022-11-22T21:11:14.865Z,27.85
2022-11-22T21:13:43.129Z,60.78
2022-11-22T21:16:23.291Z,118.63
2022-11-22T21:19:01.583Z,37.92
2022-11-22T21:21:29.753Z,30.08
2022-11-22T21:23:59.580Z,18.10
2022-11-22T21:26:26.866Z,28.88
2022-11-22T21:28:54.099Z,28.58
2022-11-22T21:31:22.456Z,16.02
2022-11-22T21:33:49.516Z,16.70
2022-11-22T21:36:16.404Z,29.17
2022-11-22T21:38:43.366Z,34.70
2022-11-22T21:41:38.758Z,13.00
2022-11-22T21:44:01.307Z,16.63
2022-11-22T21:46:28.080Z,13.10
2022-11-22T21:48:55.965Z,12.88
2022-11-22T21:51:25.847Z,50.72
2022-11-22T21:53:59.707Z,11.00
2022-11-22T21:56:27.019Z,38.30
2022-11-22T21:58:54.397Z,34.67
2022-11-22T22:01:21.801Z,14.50
2022-11-22T22:03:48.787Z,21.42
2022-11-22T22:06:15.622Z,16.10
2022-11-22T22:08:42.444Z,9.98
2022-11-22T22:11:09.423Z,10.43
2022-11-22T22:13:36.742Z,11.20
2022-11-22T22:16:12.882Z,32.63
2022-11-22T22:18:39.876Z,15.27
2022-11-22T22:21:09.020Z,11.13
2022-11-22T22:23:37.459Z,12.48
2022-11-22T22:26:10.011Z,12.73
2022-11-22T22:28:38.182Z,8.40
2022-11-22T22:31:13.645Z,10.13
2022-11-22T22:33:41.802Z,10.63
2022-11-22T22:36:10.803Z,10.38
2022-11-22T22:38:38.618Z,9.25
2022-11-22T22:41:07.285Z,8.80
2022-11-22T22:43:36.601Z,9.35
2022-11-22T22:46:09.874Z,9.35
2022-11-22T22:48:36.777Z,8.48
2022-11-22T22:51:18.241Z,8.65
2022-11-22T22:53:46.769Z,9.27
2022-11-22T22:56:14.948Z,9.90
2022-11-22T22:58:42.161Z,7.78
2022-11-22T23:01:21.669Z,7.88
2022-11-22T23:03:49.760Z,8.65
2022-11-22T23:06:17.541Z,10.45
2022-11-22T23:08:46.757Z,7.97
2022-11-22T23:11:14.190Z,5.70
2022-11-22T23:13:42.804Z,5.90
2022-11-22T23:16:13.128Z,4.53
2022-11-22T23:18:42.420Z,5.78
2022-11-22T23:21:13.679Z,6.28
2022-11-22T23:23:40.553Z,4.25
2022-11-22T23:26:10.646Z,5.70
2022-11-22T23:28:37.918Z,4.38
2022-11-22T23:31:13.783Z,6.03
2022-11-22T23:33:42.958Z,5.80
2022-11-22T23:36:19.398Z,4.25
2022-11-22T23:38:47.731Z,6.20
2022-11-22T23:41:16.919Z,4.85
2022-11-22T23:43:44.128Z,5.50
2022-11-22T23:46:18.143Z,3.70
2022-11-22T23:48:53.671Z,7.15
2022-11-22T23:51:21.345Z,6.57
2022-11-22T23:53:48.131Z,7.47
2022-11-22T23:56:21.540Z,6.97
2022-11-22T23:58:49.041Z,7.68
